sensor_id;sensor_type;location;lat;lon;timestamp;P1;durP1;ratioP1;P2;durP2;ratioP2
12707;SDS011;6418;50.824;4.718;2023-08-30T00:01:11;15.70;;;10.57;;
12707;SDS011;6418;50.824;4.718;2023-08-30T00:03:39;18.23;;;11.73;;
12707;SDS011;6418;50.824;4.718;2023-08-30T00:06:06;17.97;;;11.00;;
12707;SDS011;6418;50.824;4.718;2023-08-30T00:08:34;20.17;;;13.73;;
12707;SDS011;6418;50.824;4.718;2023-08-30T00:11:01;18.60;;;12.30;;
12707;SDS011;6418;50.824;4.718;2023-08-30T00:13:31;16.50;;;12.20;;
12707;SDS011;6418;50.824;4.718;2023-08-30T00:15:58;17.33;;;12.03;;
12707;SDS011;6418;50.824;4.718;2023-08-30T00:18:26;19.43;;;12.37;;
12707;SDS011;6418;50.824;4.718;2023-08-30T00:20:53;16.90;;;12.17;;
12707;SDS011;6418;50.824;4.718;2023-08-30T00:23:22;21.40;;;12.03;;
12707;SDS011;6418;50.824;4.718;2023-08-30T00:25:49;18.33;;;12.07;;
12707;SDS011;6418;50.824;4.718;2023-08-30T00:28:16;19.30;;;12.97;;
12707;SDS011;6418;50.824;4.718;2023-08-30T00:30:44;19.03;;;12.33;;
12707;SDS011;6418;50.824;4.718;2023-08-30T00:33:11;18.43;;;12.97;;
12707;SDS011;6418;50.824;4.718;2023-08-30T00:35:38;19.93;;;12.90;;
12707;SDS011;6418;50.824;4.718;2023-08-30T00:38:05;18.63;;;13.20;;
12707;SDS011;6418;50.824;4.718;2023-08-30T00:40:37;18.93;;;13.53;;
12707;SDS011;6418;50.824;4.718;2023-08-30T00:43:05;19.23;;;12.90;;
12707;SDS011;6418;50.824;4.718;2023-08-30T00:45:32;19.97;;;13.57;;
12707;SDS011;6418;50.824;4.718;2023-08-30T00:48:02;18.80;;;13.00;;
12707;SDS011;6418;50.824;4.718;2023-08-30T00:50:30;19.60;;;13.17;;
12707;SDS011;6418;50.824;4.718;2023-08-30T00:52:57;19.47;;;13.53;;
12707;SDS011;6418;50.824;4.718;2023-08-30T00:55:24;18.03;;;13.30;;
12707;SDS011;6418;50.824;4.718;2023-08-30T00:57:51;18.53;;;13.83;;
12707;SDS011;6418;50.824;4.718;2023-08-30T01:00:18;23.00;;;14.10;;
12707;SDS011;6418;50.824;4.718;2023-08-30T01:02:46;19.30;;;13.87;;
12707;SDS011;6418;50.824;4.718;2023-08-30T01:05:14;17.87;;;13.33;;
12707;SDS011;6418;50.824;4.718;2023-08-30T01:07:43;19.50;;;12.77;;
12707;SDS011;6418;50.824;4.718;2023-08-30T01:10:10;20.67;;;13.10;;
12707;SDS011;6418;50.824;4.718;2023-08-30T01:12:38;19.00;;;12.93;;
12707;SDS011;6418;50.824;4.718;2023-08-30T01:15:10;17.97;;;13.07;;
12707;SDS011;6418;50.824;4.718;2023-08-30T01:17:42;19.07;;;13.33;;
12707;SDS011;6418;50.824;4.718;2023-08-30T01:20:10;18.67;;;13.33;;
12707;SDS011;6418;50.824;4.718;2023-08-30T01:22:47;18.73;;;13.50;;
12707;SDS011;6418;50.824;4.718;2023-08-30T01:25:25;20.83;;;13.20;;
12707;SDS011;6418;50.824;4.718;2023-08-30T01:28:01;21.43;;;13.83;;
12707;SDS011;6418;50.824;4.718;2023-08-30T01:30:32;20.47;;;14.17;;
12707;SDS011;6418;50.824;4.718;2023-08-30T01:33:00;19.17;;;13.57;;
12707;SDS011;6418;50.824;4.718;2023-08-30T01:35:28;19.40;;;14.53;;
12707;SDS011;6418;50.824;4.718;2023-08-30T01:37:58;21.40;;;15.07;;
12707;SDS011;6418;50.824;4.718;2023-08-30T01:40:26;19.50;;;14.57;;
12707;SDS011;6418;50.824;4.718;2023-08-30T01:42:54;19.23;;;14.83;;
12707;SDS011;6418;50.824;4.718;2023-08-30T01:45:26;21.60;;;14.37;;
12707;SDS011;6418;50.824;4.718;2023-08-30T01:47:55;20.10;;;15.00;;
12707;SDS011;6418;50.824;4.718;2023-08-30T01:50:23;21.67;;;15.30;;
12707;SDS011;6418;50.824;4.718;2023-08-30T01:52:52;22.17;;;15.67;;
12707;SDS011;6418;50.824;4.718;2023-08-30T01:55:21;21.17;;;15.47;;
12707;SDS011;6418;50.824;4.718;2023-08-30T01:57:49;23.43;;;16.17;;
12707;SDS011;6418;50.824;4.718;2023-08-30T02:00:16;23.73;;;16.17;;
12707;SDS011;6418;50.824;4.718;2023-08-30T02:02:46;22.67;;;15.43;;
12707;SDS011;6418;50.824;4.718;2023-08-30T02:05:14;23.33;;;16.67;;
12707;SDS011;6418;50.824;4.718;2023-08-30T02:07:43;22.57;;;16.60;;
12707;SDS011;6418;50.824;4.718;2023-08-30T02:10:20;21.17;;;15.63;;
12707;SDS011;6418;50.824;4.718;2023-08-30T02:12:49;22.27;;;16.20;;
12707;SDS011;6418;50.824;4.718;2023-08-30T02:15:19;22.53;;;15.97;;
12707;SDS011;6418;50.824;4.718;2023-08-30T02:17:49;20.80;;;15.87;;
12707;SDS011;6418;50.824;4.718;2023-08-30T02:20:16;23.17;;;16.07;;
12707;SDS011;6418;50.824;4.718;2023-08-30T02:22:44;23.37;;;16.03;;
12707;SDS011;6418;50.824;4.718;2023-08-30T02:25:11;23.93;;;16.33;;
12707;SDS011;6418;50.824;4.718;2023-08-30T02:27:38;23.23;;;16.73;;
12707;SDS011;6418;50.824;4.718;2023-08-30T02:30:06;22.80;;;16.37;;
12707;SDS011;6418;50.824;4.718;2023-08-30T02:32:34;23.17;;;15.70;;
12707;SDS011;6418;50.824;4.718;2023-08-30T02:35:02;24.77;;;15.63;;
12707;SDS011;6418;50.824;4.718;2023-08-30T02:37:30;23.30;;;16.60;;
12707;SDS011;6418;50.824;4.718;2023-08-30T02:40:00;23.30;;;16.50;;
12707;SDS011;6418;50.824;4.718;2023-08-30T02:42:28;23.90;;;16.90;;
12707;SDS011;6418;50.824;4.718;2023-08-30T02:44:55;23.17;;;17.00;;
12707;SDS011;6418;50.824;4.718;2023-08-30T02:47:22;25.90;;;16.57;;
12707;SDS011;6418;50.824;4.718;2023-08-30T02:49:49;23.07;;;16.47;;
12707;SDS011;6418;50.824;4.718;2023-08-30T02:52:18;22.07;;;16.80;;
12707;SDS011;6418;50.824;4.718;2023-08-30T02:54:45;24.17;;;16.80;;
12707;SDS011;6418;50.824;4.718;2023-08-30T02:57:12;25.67;;;16.50;;
12707;SDS011;6418;50.824;4.718;2023-08-30T02:59:39;24.03;;;17.07;;
12707;SDS011;6418;50.824;4.718;2023-08-30T03:02:06;23.57;;;16.77;;
12707;SDS011;6418;50.824;4.718;2023-08-30T03:04:33;22.97;;;17.23;;
12707;SDS011;6418;50.824;4.718;2023-08-30T03:07:00;22.27;;;15.97;;
12707;SDS011;6418;50.824;4.718;2023-08-30T03:09:29;28.80;;;17.70;;
12707;SDS011;6418;50.824;4.718;2023-08-30T03:11:56;23.97;;;17.20;;
12707;SDS011;6418;50.824;4.718;2023-08-30T03:14:23;25.47;;;17.47;;
12707;SDS011;6418;50.824;4.718;2023-08-30T03:16:50;26.37;;;17.33;;
12707;SDS011;6418;50.824;4.718;2023-08-30T03:19:17;28.33;;;17.80;;
12707;SDS011;6418;50.824;4.718;2023-08-30T03:21:44;24.73;;;17.47;;
12707;SDS011;6418;50.824;4.718;2023-08-30T03:24:11;22.87;;;17.27;;
12707;SDS011;6418;50.824;4.718;2023-08-30T03:26:43;25.63;;;17.70;;
12707;SDS011;6418;50.824;4.718;2023-08-30T03:29:10;27.63;;;17.77;;
12707;SDS011;6418;50.824;4.718;2023-08-30T03:31:37;25.23;;;17.33;;
12707;SDS011;6418;50.824;4.718;2023-08-30T03:34:04;25.23;;;17.63;;
12707;SDS011;6418;50.824;4.718;2023-08-30T03:36:31;25.17;;;17.57;;
12707;SDS011;6418;50.824;4.718;2023-08-30T03:38:58;23.53;;;17.10;;
12707;SDS011;6418;50.824;4.718;2023-08-30T03:41:25;25.03;;;17.27;;
12707;SDS011;6418;50.824;4.718;2023-08-30T03:43:54;25.80;;;16.93;;
12707;SDS011;6418;50.824;4.718;2023-08-30T03:46:21;25.00;;;17.23;;
12707;SDS011;6418;50.824;4.718;2023-08-30T03:48:48;21.00;;;15.57;;
12707;SDS011;6418;50.824;4.718;2023-08-30T03:51:15;23.53;;;16.53;;
12707;SDS011;6418;50.824;4.718;2023-08-30T03:53:42;25.03;;;17.50;;
12707;SDS011;6418;50.824;4.718;2023-08-30T03:56:09;23.80;;;16.87;;
12707;SDS011;6418;50.824;4.718;2023-08-30T03:58:36;22.37;;;15.73;;
12707;SDS011;6418;50.824;4.718;2023-08-30T04:01:05;23.33;;;15.90;;
12707;SDS011;6418;50.824;4.718;2023-08-30T04:03:33;21.43;;;15.63;;
12707;SDS011;6418;50.824;4.718;2023-08-30T04:06:00;23.13;;;15.63;;
12707;SDS011;6418;50.824;4.718;2023-08-30T04:08:27;23.77;;;16.73;;
12707;SDS011;6418;50.824;4.718;2023-08-30T04:10:54;25.33;;;15.57;;
12707;SDS011;6418;50.824;4.718;2023-08-30T04:13:21;22.33;;;16.27;;
12707;SDS011;6418;50.824;4.718;2023-08-30T04:15:48;22.83;;;15.50;;
12707;SDS011;6418;50.824;4.718;2023-08-30T04:18:16;22.30;;;15.90;;
12707;SDS011;6418;50.824;4.718;2023-08-30T04:20:44;20.60;;;15.10;;
12707;SDS011;6418;50.824;4.718;2023-08-30T04:23:12;20.77;;;15.10;;
12707;SDS011;6418;50.824;4.718;2023-08-30T04:25:40;20.93;;;15.00;;
12707;SDS011;6418;50.824;4.718;2023-08-30T04:28:07;20.43;;;14.57;;
12707;SDS011;6418;50.824;4.718;2023-08-30T04:30:35;24.13;;;15.23;;
12707;SDS011;6418;50.824;4.718;2023-08-30T04:33:03;21.77;;;14.43;;
12707;SDS011;6418;50.824;4.718;2023-08-30T04:35:32;21.80;;;14.40;;
12707;SDS011;6418;50.824;4.718;2023-08-30T04:38:00;20.80;;;14.03;;
12707;SDS011;6418;50.824;4.718;2023-08-30T04:40:28;22.13;;;14.10;;
12707;SDS011;6418;50.824;4.718;2023-08-30T04:42:55;21.50;;;14.03;;
12707;SDS011;6418;50.824;4.718;2023-08-30T04:45:23;21.10;;;13.97;;
12707;SDS011;6418;50.824;4.718;2023-08-30T04:47:49;20.67;;;14.17;;
12707;SDS011;6418;50.824;4.718;2023-08-30T04:50:18;19.60;;;13.80;;
12707;SDS011;6418;50.824;4.718;2023-08-30T04:52:46;19.20;;;13.50;;
12707;SDS011;6418;50.824;4.718;2023-08-30T04:55:13;21.73;;;12.97;;
12707;SDS011;6418;50.824;4.718;2023-08-30T04:57:40;20.20;;;13.00;;
12707;SDS011;6418;50.824;4.718;2023-08-30T05:00:10;21.77;;;13.00;;
12707;SDS011;6418;50.824;4.718;2023-08-30T05:02:37;21.60;;;12.50;;
12707;SDS011;6418;50.824;4.718;2023-08-30T05:05:06;19.33;;;12.07;;
12707;SDS011;6418;50.824;4.718;2023-08-30T05:07:33;18.13;;;11.30;;
12707;SDS011;6418;50.824;4.718;2023-08-30T05:10:01;20.23;;;11.77;;
12707;SDS011;6418;50.824;4.718;2023-08-30T05:12:29;16.60;;;11.10;;
12707;SDS011;6418;50.824;4.718;2023-08-30T05:14:56;15.07;;;10.17;;
12707;SDS011;6418;50.824;4.718;2023-08-30T05:17:23;16.83;;;10.60;;
12707;SDS011;6418;50.824;4.718;2023-08-30T05:19:50;16.73;;;10.00;;
12707;SDS011;6418;50.824;4.718;2023-08-30T05:22:17;15.53;;;9.53;;
12707;SDS011;6418;50.824;4.718;2023-08-30T05:24:44;14.00;;;9.20;;
12707;SDS011;6418;50.824;4.718;2023-08-30T05:27:12;14.87;;;8.53;;
12707;SDS011;6418;50.824;4.718;2023-08-30T05:29:40;15.00;;;8.03;;
12707;SDS011;6418;50.824;4.718;2023-08-30T05:32:06;14.33;;;8.00;;
12707;SDS011;6418;50.824;4.718;2023-08-30T05:34:33;14.20;;;7.40;;
12707;SDS011;6418;50.824;4.718;2023-08-30T05:37:00;15.90;;;7.30;;
12707;SDS011;6418;50.824;4.718;2023-08-30T05:39:27;12.63;;;7.60;;
12707;SDS011;6418;50.824;4.718;2023-08-30T05:41:54;14.17;;;6.97;;
12707;SDS011;6418;50.824;4.718;2023-08-30T05:44:23;12.40;;;6.97;;
12707;SDS011;6418;50.824;4.718;2023-08-30T05:46:49;13.10;;;6.90;;
12707;SDS011;6418;50.824;4.718;2023-08-30T05:49:17;13.97;;;6.70;;
12707;SDS011;6418;50.824;4.718;2023-08-30T05:51:43;9.70;;;6.00;;
12707;SDS011;6418;50.824;4.718;2023-08-30T05:54:10;11.47;;;6.07;;
12707;SDS011;6418;50.824;4.718;2023-08-30T05:56:37;11.37;;;6.20;;
12707;SDS011;6418;50.824;4.718;2023-08-30T05:59:04;12.47;;;6.30;;
12707;SDS011;6418;50.824;4.718;2023-08-30T06:01:33;14.50;;;7.20;;
12707;SDS011;6418;50.824;4.718;2023-08-30T06:04:00;12.87;;;6.87;;
12707;SDS011;6418;50.824;4.718;2023-08-30T06:06:29;13.73;;;7.00;;
12707;SDS011;6418;50.824;4.718;2023-08-30T06:08:57;14.90;;;7.00;;
12707;SDS011;6418;50.824;4.718;2023-08-30T06:11:24;17.00;;;7.53;;
12707;SDS011;6418;50.824;4.718;2023-08-30T06:13:51;13.67;;;7.20;;
12707;SDS011;6418;50.824;4.718;2023-08-30T06:16:18;13.23;;;7.27;;
12707;SDS011;6418;50.824;4.718;2023-08-30T06:18:46;13.80;;;7.13;;
12707;SDS011;6418;50.824;4.718;2023-08-30T06:21:13;12.83;;;7.10;;
12707;SDS011;6418;50.824;4.718;2023-08-30T06:23:40;12.93;;;6.80;;
12707;SDS011;6418;50.824;4.718;2023-08-30T06:26:07;15.83;;;6.73;;
12707;SDS011;6418;50.824;4.718;2023-08-30T06:28:34;13.17;;;6.43;;
12707;SDS011;6418;50.824;4.718;2023-08-30T06:31:01;14.57;;;6.63;;
12707;SDS011;6418;50.824;4.718;2023-08-30T06:33:28;11.20;;;6.43;;
12707;SDS011;6418;50.824;4.718;2023-08-30T06:35:57;11.33;;;6.33;;
12707;SDS011;6418;50.824;4.718;2023-08-30T06:38:23;11.60;;;6.30;;
12707;SDS011;6418;50.824;4.718;2023-08-30T06:40:50;12.33;;;5.90;;
12707;SDS011;6418;50.824;4.718;2023-08-30T06:43:18;10.13;;;6.00;;
12707;SDS011;6418;50.824;4.718;2023-08-30T06:45:45;11.93;;;6.47;;
12707;SDS011;6418;50.824;4.718;2023-08-30T06:48:12;11.40;;;6.60;;
12707;SDS011;6418;50.824;4.718;2023-08-30T06:50:39;12.53;;;6.20;;
12707;SDS011;6418;50.824;4.718;2023-08-30T06:53:08;13.00;;;6.13;;
12707;SDS011;6418;50.824;4.718;2023-08-30T06:55:35;11.87;;;6.07;;
12707;SDS011;6418;50.824;4.718;2023-08-30T06:58:02;10.63;;;6.37;;
12707;SDS011;6418;50.824;4.718;2023-08-30T07:00:29;11.73;;;6.20;;
12707;SDS011;6418;50.824;4.718;2023-08-30T07:02:56;12.20;;;6.33;;
12707;SDS011;6418;50.824;4.718;2023-08-30T07:05:23;12.73;;;5.90;;
12707;SDS011;6418;50.824;4.718;2023-08-30T07:07:50;13.20;;;6.27;;
12707;SDS011;6418;50.824;4.718;2023-08-30T07:10:19;13.47;;;6.53;;
12707;SDS011;6418;50.824;4.718;2023-08-30T07:12:46;12.20;;;6.70;;
12707;SDS011;6418;50.824;4.718;2023-08-30T07:15:14;11.60;;;7.37;;
12707;SDS011;6418;50.824;4.718;2023-08-30T07:17:42;14.47;;;7.80;;
12707;SDS011;6418;50.824;4.718;2023-08-30T07:20:09;13.67;;;7.60;;
12707;SDS011;6418;50.824;4.718;2023-08-30T07:22:37;14.53;;;7.73;;
12707;SDS011;6418;50.824;4.718;2023-08-30T07:25:04;14.50;;;7.80;;
12707;SDS011;6418;50.824;4.718;2023-08-30T07:27:33;18.17;;;8.83;;
12707;SDS011;6418;50.824;4.718;2023-08-30T07:30:00;15.80;;;8.97;;
12707;SDS011;6418;50.824;4.718;2023-08-30T07:32:29;15.70;;;8.20;;
12707;SDS011;6418;50.824;4.718;2023-08-30T07:34:56;16.23;;;8.97;;
12707;SDS011;6418;50.824;4.718;2023-08-30T07:37:23;18.30;;;9.23;;
12707;SDS011;6418;50.824;4.718;2023-08-30T07:39:51;19.43;;;9.27;;
12707;SDS011;6418;50.824;4.718;2023-08-30T07:42:18;17.13;;;9.43;;
12707;SDS011;6418;50.824;4.718;2023-08-30T07:44:46;20.10;;;10.30;;
12707;SDS011;6418;50.824;4.718;2023-08-30T07:47:13;18.47;;;9.97;;
12707;SDS011;6418;50.824;4.718;2023-08-30T07:49:40;20.50;;;10.50;;
12707;SDS011;6418;50.824;4.718;2023-08-30T07:52:07;17.70;;;10.00;;
12707;SDS011;6418;50.824;4.718;2023-08-30T07:54:36;21.30;;;10.60;;
12707;SDS011;6418;50.824;4.718;2023-08-30T07:57:04;20.83;;;10.87;;
12707;SDS011;6418;50.824;4.718;2023-08-30T07:59:32;21.03;;;10.47;;
12707;SDS011;6418;50.824;4.718;2023-08-30T08:04:31;18.43;;;10.50;;
12707;SDS011;6418;50.824;4.718;2023-08-30T08:06:58;21.43;;;11.50;;
12707;SDS011;6418;50.824;4.718;2023-08-30T08:09:25;20.30;;;11.10;;
12707;SDS011;6418;50.824;4.718;2023-08-30T08:11:53;19.50;;;10.63;;
12707;SDS011;6418;50.824;4.718;2023-08-30T08:14:21;18.47;;;10.60;;
12707;SDS011;6418;50.824;4.718;2023-08-30T08:16:48;19.10;;;10.83;;
12707;SDS011;6418;50.824;4.718;2023-08-30T08:19:16;20.30;;;11.17;;
12707;SDS011;6418;50.824;4.718;2023-08-30T08:21:45;20.00;;;11.33;;
12707;SDS011;6418;50.824;4.718;2023-08-30T08:24:12;19.43;;;11.30;;
12707;SDS011;6418;50.824;4.718;2023-08-30T08:26:39;19.83;;;10.73;;
12707;SDS011;6418;50.824;4.718;2023-08-30T08:29:06;19.60;;;10.80;;
12707;SDS011;6418;50.824;4.718;2023-08-30T08:31:33;18.30;;;10.17;;
12707;SDS011;6418;50.824;4.718;2023-08-30T08:34:07;17.97;;;10.73;;
12707;SDS011;6418;50.824;4.718;2023-08-30T08:36:37;17.73;;;10.57;;
12707;SDS011;6418;50.824;4.718;2023-08-30T08:39:05;17.43;;;9.97;;
12707;SDS011;6418;50.824;4.718;2023-08-30T08:41:35;16.90;;;9.97;;
12707;SDS011;6418;50.824;4.718;2023-08-30T08:44:05;18.57;;;10.80;;
12707;SDS011;6418;50.824;4.718;2023-08-30T08:46:34;17.40;;;10.37;;
12707;SDS011;6418;50.824;4.718;2023-08-30T08:49:02;16.23;;;9.23;;
12707;SDS011;6418;50.824;4.718;2023-08-30T08:51:34;16.87;;;9.87;;
12707;SDS011;6418;50.824;4.718;2023-08-30T08:54:06;20.17;;;10.03;;
12707;SDS011;6418;50.824;4.718;2023-08-30T08:56:34;18.20;;;9.67;;
12707;SDS011;6418;50.824;4.718;2023-08-30T08:59:02;17.43;;;9.60;;
12707;SDS011;6418;50.824;4.718;2023-08-30T09:01:30;18.80;;;9.60;;
12707;SDS011;6418;50.824;4.718;2023-08-30T09:04:01;16.90;;;9.13;;
12707;SDS011;6418;50.824;4.718;2023-08-30T09:06:31;18.77;;;9.80;;
12707;SDS011;6418;50.824;4.718;2023-08-30T09:08:58;19.87;;;10.10;;
12707;SDS011;6418;50.824;4.718;2023-08-30T09:11:27;16.83;;;9.23;;
12707;SDS011;6418;50.824;4.718;2023-08-30T09:13:54;17.07;;;9.33;;
12707;SDS011;6418;50.824;4.718;2023-08-30T09:16:21;15.00;;;8.63;;
12707;SDS011;6418;50.824;4.718;2023-08-30T09:18:56;16.40;;;8.70;;
12707;SDS011;6418;50.824;4.718;2023-08-30T09:21:24;15.43;;;8.40;;
12707;SDS011;6418;50.824;4.718;2023-08-30T09:23:58;16.70;;;8.50;;
12707;SDS011;6418;50.824;4.718;2023-08-30T09:26:27;15.40;;;8.80;;
12707;SDS011;6418;50.824;4.718;2023-08-30T09:29:00;17.10;;;8.80;;
12707;SDS011;6418;50.824;4.718;2023-08-30T09:31:32;15.47;;;8.53;;
12707;SDS011;6418;50.824;4.718;2023-08-30T09:34:00;16.03;;;8.53;;
12707;SDS011;6418;50.824;4.718;2023-08-30T09:36:32;16.27;;;8.40;;
12707;SDS011;6418;50.824;4.718;2023-08-30T09:39:02;14.80;;;8.30;;
12707;SDS011;6418;50.824;4.718;2023-08-30T09:41:31;15.03;;;8.50;;
12707;SDS011;6418;50.824;4.718;2023-08-30T09:43:59;14.17;;;8.33;;
12707;SDS011;6418;50.824;4.718;2023-08-30T09:46:26;14.27;;;7.50;;
12707;SDS011;6418;50.824;4.718;2023-08-30T09:48:54;15.60;;;8.50;;
12707;SDS011;6418;50.824;4.718;2023-08-30T09:51:22;15.00;;;8.33;;
12707;SDS011;6418;50.824;4.718;2023-08-30T09:53:53;14.87;;;7.97;;
12707;SDS011;6418;50.824;4.718;2023-08-30T09:56:23;14.10;;;8.03;;
12707;SDS011;6418;50.824;4.718;2023-08-30T09:58:53;14.37;;;7.57;;
12707;SDS011;6418;50.824;4.718;2023-08-30T10:01:20;13.17;;;7.63;;
12707;SDS011;6418;50.824;4.718;2023-08-30T10:03:48;12.57;;;7.20;;
12707;SDS011;6418;50.824;4.718;2023-08-30T10:06:15;14.87;;;8.03;;
12707;SDS011;6418;50.824;4.718;2023-08-30T10:08:43;13.97;;;7.53;;
12707;SDS011;6418;50.824;4.718;2023-08-30T10:11:13;14.23;;;8.17;;
12707;SDS011;6418;50.824;4.718;2023-08-30T10:13:42;14.13;;;8.23;;
12707;SDS011;6418;50.824;4.718;2023-08-30T10:16:12;12.87;;;8.07;;
12707;SDS011;6418;50.824;4.718;2023-08-30T10:18:45;13.60;;;7.77;;
12707;SDS011;6418;50.824;4.718;2023-08-30T10:21:16;13.70;;;8.90;;
12707;SDS011;6418;50.824;4.718;2023-08-30T10:23:45;14.53;;;8.40;;
12707;SDS011;6418;50.824;4.718;2023-08-30T10:26:15;14.87;;;9.27;;
12707;SDS011;6418;50.824;4.718;2023-08-30T10:28:44;15.57;;;9.13;;
12707;SDS011;6418;50.824;4.718;2023-08-30T10:31:13;13.70;;;8.53;;
12707;SDS011;6418;50.824;4.718;2023-08-30T10:33:46;14.90;;;9.07;;
12707;SDS011;6418;50.824;4.718;2023-08-30T10:36:20;15.20;;;9.33;;
12707;SDS011;6418;50.824;4.718;2023-08-30T10:38:48;15.97;;;9.57;;
12707;SDS011;6418;50.824;4.718;2023-08-30T10:41:19;17.13;;;10.37;;
12707;SDS011;6418;50.824;4.718;2023-08-30T10:43:49;16.67;;;10.50;;
12707;SDS011;6418;50.824;4.718;2023-08-30T10:46:28;19.80;;;11.37;;
12707;SDS011;6418;50.824;4.718;2023-08-30T10:48:56;17.53;;;10.73;;
12707;SDS011;6418;50.824;4.718;2023-08-30T10:51:35;15.10;;;9.30;;
12707;SDS011;6418;50.824;4.718;2023-08-30T10:54:10;14.97;;;9.30;;
12707;SDS011;6418;50.824;4.718;2023-08-30T10:56:47;17.60;;;10.10;;
12707;SDS011;6418;50.824;4.718;2023-08-30T10:59:15;18.77;;;11.33;;
12707;SDS011;6418;50.824;4.718;2023-08-30T11:01:45;17.90;;;11.40;;
12707;SDS011;6418;50.824;4.718;2023-08-30T11:04:12;20.30;;;12.50;;
12707;SDS011;6418;50.824;4.718;2023-08-30T11:06:42;17.77;;;11.27;;
12707;SDS011;6418;50.824;4.718;2023-08-30T11:09:12;17.47;;;11.10;;
12707;SDS011;6418;50.824;4.718;2023-08-30T11:11:43;19.80;;;11.70;;
12707;SDS011;6418;50.824;4.718;2023-08-30T11:14:10;17.53;;;11.23;;
12707;SDS011;6418;50.824;4.718;2023-08-30T11:16:37;18.23;;;11.63;;
12707;SDS011;6418;50.824;4.718;2023-08-30T11:19:06;16.17;;;10.37;;
12707;SDS011;6418;50.824;4.718;2023-08-30T11:21:34;17.83;;;10.03;;
12707;SDS011;6418;50.824;4.718;2023-08-30T11:24:03;15.23;;;10.13;;
12707;SDS011;6418;50.824;4.718;2023-08-30T11:26:30;18.60;;;10.57;;
12707;SDS011;6418;50.824;4.718;2023-08-30T11:28:57;17.50;;;10.80;;
12707;SDS011;6418;50.824;4.718;2023-08-30T11:31:24;16.80;;;10.50;;
12707;SDS011;6418;50.824;4.718;2023-08-30T11:33:52;18.37;;;10.83;;
12707;SDS011;6418;50.824;4.718;2023-08-30T11:36:22;17.47;;;11.00;;
12707;SDS011;6418;50.824;4.718;2023-08-30T11:38:50;17.70;;;11.43;;
12707;SDS011;6418;50.824;4.718;2023-08-30T11:41:19;20.00;;;12.37;;
12707;SDS011;6418;50.824;4.718;2023-08-30T11:43:46;17.73;;;11.47;;
12707;SDS011;6418;50.824;4.718;2023-08-30T11:46:14;17.83;;;11.63;;
12707;SDS011;6418;50.824;4.718;2023-08-30T11:48:42;19.20;;;10.93;;
12707;SDS011;6418;50.824;4.718;2023-08-30T11:51:10;18.73;;;11.97;;
12707;SDS011;6418;50.824;4.718;2023-08-30T11:53:40;16.37;;;10.67;;
12707;SDS011;6418;50.824;4.718;2023-08-30T11:56:07;16.43;;;11.13;;
12707;SDS011;6418;50.824;4.718;2023-08-30T11:58:35;16.07;;;10.80;;
12707;SDS011;6418;50.824;4.718;2023-08-30T12:01:02;17.90;;;11.07;;
12707;SDS011;6418;50.824;4.718;2023-08-30T12:03:30;16.47;;;10.30;;
12707;SDS011;6418;50.824;4.718;2023-08-30T12:05:57;15.33;;;9.53;;
12707;SDS011;6418;50.824;4.718;2023-08-30T12:08:25;16.40;;;9.70;;
12707;SDS011;6418;50.824;4.718;2023-08-30T12:10:56;14.77;;;9.20;;
12707;SDS011;6418;50.824;4.718;2023-08-30T12:13:23;15.77;;;8.40;;
12707;SDS011;6418;50.824;4.718;2023-08-30T12:15:51;14.87;;;8.23;;
12707;SDS011;6418;50.824;4.718;2023-08-30T12:18:20;16.43;;;8.53;;
12707;SDS011;6418;50.824;4.718;2023-08-30T12:20:52;14.57;;;8.50;;
12707;SDS011;6418;50.824;4.718;2023-08-30T12:23:20;14.03;;;8.40;;
12707;SDS011;6418;50.824;4.718;2023-08-30T12:25:58;13.60;;;7.87;;
12707;SDS011;6418;50.824;4.718;2023-08-30T12:28:26;13.37;;;8.43;;
12707;SDS011;6418;50.824;4.718;2023-08-30T12:30:54;15.70;;;8.10;;
12707;SDS011;6418;50.824;4.718;2023-08-30T12:33:22;15.93;;;8.20;;
12707;SDS011;6418;50.824;4.718;2023-08-30T12:35:50;15.37;;;7.77;;
12707;SDS011;6418;50.824;4.718;2023-08-30T12:38:17;15.07;;;7.83;;
12707;SDS011;6418;50.824;4.718;2023-08-30T12:40:44;14.40;;;7.93;;
12707;SDS011;6418;50.824;4.718;2023-08-30T12:43:13;14.30;;;5.90;;
12707;SDS011;6418;50.824;4.718;2023-08-30T12:45:41;12.87;;;5.47;;
12707;SDS011;6418;50.824;4.718;2023-08-30T12:48:09;11.27;;;4.70;;
12707;SDS011;6418;50.824;4.718;2023-08-30T12:50:37;12.70;;;4.80;;
12707;SDS011;6418;50.824;4.718;2023-08-30T12:53:04;12.43;;;4.80;;
12707;SDS011;6418;50.824;4.718;2023-08-30T12:55:32;12.90;;;4.43;;
12707;SDS011;6418;50.824;4.718;2023-08-30T12:58:00;12.23;;;4.97;;
12707;SDS011;6418;50.824;4.718;2023-08-30T13:00:29;11.87;;;4.63;;
12707;SDS011;6418;50.824;4.718;2023-08-30T13:02:55;12.17;;;4.70;;
12707;SDS011;6418;50.824;4.718;2023-08-30T13:05:22;13.63;;;4.87;;
12707;SDS011;6418;50.824;4.718;2023-08-30T13:07:49;15.97;;;5.00;;
12707;SDS011;6418;50.824;4.718;2023-08-30T13:10:16;12.30;;;4.40;;
12707;SDS011;6418;50.824;4.718;2023-08-30T13:12:43;12.63;;;4.53;;
12707;SDS011;6418;50.824;4.718;2023-08-30T13:15:10;14.73;;;4.80;;
12707;SDS011;6418;50.824;4.718;2023-08-30T13:17:39;14.20;;;5.00;;
12707;SDS011;6418;50.824;4.718;2023-08-30T13:20:06;11.50;;;4.47;;
12707;SDS011;6418;50.824;4.718;2023-08-30T13:22:33;14.77;;;4.40;;
12707;SDS011;6418;50.824;4.718;2023-08-30T13:25:01;16.27;;;4.90;;
12707;SDS011;6418;50.824;4.718;2023-08-30T13:27:28;17.00;;;4.57;;
12707;SDS011;6418;50.824;4.718;2023-08-30T13:29:56;12.97;;;4.63;;
12707;SDS011;6418;50.824;4.718;2023-08-30T13:32:23;13.63;;;4.43;;
12707;SDS011;6418;50.824;4.718;2023-08-30T13:34:51;13.13;;;4.30;;
12707;SDS011;6418;50.824;4.718;2023-08-30T13:37:18;15.73;;;4.63;;
12707;SDS011;6418;50.824;4.718;2023-08-30T13:39:45;10.90;;;4.30;;
12707;SDS011;6418;50.824;4.718;2023-08-30T13:42:12;13.13;;;4.13;;
12707;SDS011;6418;50.824;4.718;2023-08-30T13:44:39;14.80;;;4.40;;
12707;SDS011;6418;50.824;4.718;2023-08-30T13:47:07;11.00;;;4.10;;
12707;SDS011;6418;50.824;4.718;2023-08-30T13:49:35;13.73;;;4.40;;
12707;SDS011;6418;50.824;4.718;2023-08-30T13:52:04;12.87;;;4.33;;
12707;SDS011;6418;50.824;4.718;2023-08-30T13:54:31;11.30;;;3.70;;
12707;SDS011;6418;50.824;4.718;2023-08-30T13:56:58;15.07;;;4.23;;
12707;SDS011;6418;50.824;4.718;2023-08-30T13:59:25;14.00;;;4.00;;
12707;SDS011;6418;50.824;4.718;2023-08-30T14:01:53;13.33;;;4.00;;
12707;SDS011;6418;50.824;4.718;2023-08-30T14:04:22;12.17;;;4.50;;
12707;SDS011;6418;50.824;4.718;2023-08-30T14:06:49;8.57;;;3.90;;
12707;SDS011;6418;50.824;4.718;2023-08-30T14:09:18;8.67;;;3.70;;
12707;SDS011;6418;50.824;4.718;2023-08-30T14:11:45;12.50;;;4.10;;
12707;SDS011;6418;50.824;4.718;2023-08-30T14:14:12;14.13;;;3.93;;
12707;SDS011;6418;50.824;4.718;2023-08-30T14:16:38;11.80;;;3.90;;
12707;SDS011;6418;50.824;4.718;2023-08-30T14:19:05;11.17;;;3.60;;
12707;SDS011;6418;50.824;4.718;2023-08-30T14:21:33;8.67;;;3.50;;
12707;SDS011;6418;50.824;4.718;2023-08-30T14:24:00;9.90;;;3.70;;
12707;SDS011;6418;50.824;4.718;2023-08-30T14:26:29;8.83;;;3.40;;
12707;SDS011;6418;50.824;4.718;2023-08-30T14:28:56;6.80;;;3.47;;
12707;SDS011;6418;50.824;4.718;2023-08-30T14:31:22;9.37;;;3.17;;
12707;SDS011;6418;50.824;4.718;2023-08-30T14:33:53;8.40;;;3.70;;
12707;SDS011;6418;50.824;4.718;2023-08-30T14:36:22;15.03;;;4.00;;
12707;SDS011;6418;50.824;4.718;2023-08-30T14:38:49;7.40;;;3.50;;
12707;SDS011;6418;50.824;4.718;2023-08-30T14:41:16;11.47;;;3.63;;
12707;SDS011;6418;50.824;4.718;2023-08-30T14:43:44;9.10;;;3.23;;
12707;SDS011;6418;50.824;4.718;2023-08-30T14:46:11;11.90;;;3.90;;
12707;SDS011;6418;50.824;4.718;2023-08-30T14:48:40;10.40;;;3.63;;